sensor_id;sensor_type;location;lat;lon;timestamp;pressure;altitude;pressure_sealevel;temperature;humidity
49063;BME280;34876;51.464;-0.150;2024-03-07T00:01:31;102332.42;;;15.84;43.82
49063;BME280;34876;51.464;-0.150;2024-03-07T00:04:00;102331.53;;;15.36;44.97
49063;BME280;34876;51.464;-0.150;2024-03-07T00:06:29;102330.51;;;16.43;42.42
49063;BME280;34876;51.464;-0.150;2024-03-07T00:09:01;102328.40;;;15.34;44.68
49063;BME280;34876;51.464;-0.150;2024-03-07T00:11:32;102330.27;;;15.80;43.94
49063;BME280;34876;51.464;-0.150;2024-03-07T00:14:02;102325.12;;;15.69;44.39
49063;BME280;34876;51.464;-0.150;2024-03-07T00:16:31;102319.89;;;16.50;42.14
49063;BME280;34876;51.464;-0.150;2024-03-07T00:19:11;102322.08;;;16.12;43.04
49063;BME280;34876;51.464;-0.150;2024-03-07T00:21:41;102317.88;;;16.70;41.75
49063;BME280;34876;51.464;-0.150;2024-03-07T00:24:11;102317.84;;;17.04;40.92
49063;BME280;34876;51.464;-0.150;2024-03-07T00:26:40;102317.54;;;17.07;40.83
49063;BME280;34876;51.464;-0.150;2024-03-07T00:29:09;102316.10;;;16.25;42.72
49063;BME280;34876;51.464;-0.150;2024-03-07T00:31:44;102321.45;;;16.05;43.16
49063;BME280;34876;51.464;-0.150;2024-03-07T00:34:14;102318.46;;;16.85;41.36
49063;BME280;34876;51.464;-0.150;2024-03-07T00:36:44;102323.16;;;15.81;43.65
49063;BME280;34876;51.464;-0.150;2024-03-07T00:39:14;102315.43;;;16.84;41.44
49063;BME280;34876;51.464;-0.150;2024-03-07T00:41:44;102312.36;;;16.72;42.28
49063;BME280;34876;51.464;-0.150;2024-03-07T00:44:19;102317.02;;;16.61;42.43
49063;BME280;34876;51.464;-0.150;2024-03-07T00:46:48;102314.36;;;16.41;42.80
49063;BME280;34876;51.464;-0.150;2024-03-07T00:49:23;102318.72;;;16.33;42.65
49063;BME280;34876;51.464;-0.150;2024-03-07T00:51:53;102312.45;;;16.21;42.96
49063;BME280;34876;51.464;-0.150;2024-03-07T00:54:22;102325.75;;;15.23;45.84
49063;BME280;34876;51.464;-0.150;2024-03-07T00:56:55;102323.55;;;14.77;46.75
49063;BME280;34876;51.464;-0.150;2024-03-07T01:00:02;102321.41;;;15.31;45.32
49063;BME280;34876;51.464;-0.150;2024-03-07T01:09:22;102319.46;;;16.09;44.02
49063;BME280;34876;51.464;-0.150;2024-03-07T01:11:51;102326.53;;;13.98;49.29
49063;BME280;34876;51.464;-0.150;2024-03-07T01:14:20;102321.80;;;14.07;48.91
49063;BME280;34876;51.464;-0.150;2024-03-07T01:16:55;102320.70;;;14.51;47.55
49063;BME280;34876;51.464;-0.150;2024-03-07T01:19:31;102310.91;;;16.45;42.76
49063;BME280;34876;51.464;-0.150;2024-03-07T01:22:09;102311.24;;;16.72;41.97
49063;BME280;34876;51.464;-0.150;2024-03-07T01:24:41;102319.26;;;15.81;44.06
49063;BME280;34876;51.464;-0.150;2024-03-07T01:27:24;102313.27;;;16.32;42.94
49063;BME280;34876;51.464;-0.150;2024-03-07T01:30:10;102313.58;;;16.60;42.23
49063;BME280;34876;51.464;-0.150;2024-03-07T01:32:39;102316.18;;;16.76;41.82
49063;BME280;34876;51.464;-0.150;2024-03-07T01:35:08;102315.11;;;16.96;41.29
49063;BME280;34876;51.464;-0.150;2024-03-07T01:37:38;102309.57;;;16.33;42.75
49063;BME280;34876;51.464;-0.150;2024-03-07T01:40:08;102301.47;;;16.65;42.04
49063;BME280;34876;51.464;-0.150;2024-03-07T01:42:38;102314.43;;;16.10;43.36
49063;BME280;34876;51.464;-0.150;2024-03-07T01:45:08;102311.70;;;14.90;46.24
49063;BME280;34876;51.464;-0.150;2024-03-07T01:47:37;102302.29;;;15.32;45.31
49063;BME280;34876;51.464;-0.150;2024-03-07T01:50:08;102301.41;;;16.15;43.25
49063;BME280;34876;51.464;-0.150;2024-03-07T01:52:43;102295.19;;;16.86;41.56
49063;BME280;34876;51.464;-0.150;2024-03-07T01:55:15;102297.86;;;16.66;41.90
49063;BME280;34876;51.464;-0.150;2024-03-07T01:57:45;102292.03;;;16.72;41.76
49063;BME280;34876;51.464;-0.150;2024-03-07T02:00:15;102292.39;;;17.04;41.12
49063;BME280;34876;51.464;-0.150;2024-03-07T02:02:45;102288.82;;;16.32;42.81
49063;BME280;34876;51.464;-0.150;2024-03-07T02:05:13;102293.59;;;14.66;47.06
49063;BME280;34876;51.464;-0.150;2024-03-07T02:07:45;102284.70;;;15.74;44.29
49063;BME280;34876;51.464;-0.150;2024-03-07T02:10:13;102279.62;;;16.74;41.85
49063;BME280;34876;51.464;-0.150;2024-03-07T02:12:42;102284.89;;;15.29;45.14
49063;BME280;34876;51.464;-0.150;2024-03-07T02:15:13;102285.63;;;14.48;47.33
49063;BME280;34876;51.464;-0.150;2024-03-07T02:17:42;102276.32;;;16.41;42.66
49063;BME280;34876;51.464;-0.150;2024-03-07T02:20:12;102276.56;;;16.31;42.81
49063;BME280;34876;51.464;-0.150;2024-03-07T02:22:42;102277.26;;;16.35;42.73
49063;BME280;34876;51.464;-0.150;2024-03-07T02:25:11;102279.25;;;16.69;41.92
49063;BME280;34876;51.464;-0.150;2024-03-07T02:27:44;102280.41;;;16.16;42.96
49063;BME280;34876;51.464;-0.150;2024-03-07T02:30:14;102273.45;;;16.82;41.60
49063;BME280;34876;51.464;-0.150;2024-03-07T02:32:45;102272.35;;;17.01;41.10
49063;BME280;34876;51.464;-0.150;2024-03-07T02:35:15;102270.05;;;16.95;41.23
49063;BME280;34876;51.464;-0.150;2024-03-07T02:37:44;102272.08;;;15.78;43.86
49063;BME280;34876;51.464;-0.150;2024-03-07T02:40:15;102267.52;;;16.80;41.63
49063;BME280;34876;51.464;-0.150;2024-03-07T02:42:46;102269.44;;;17.06;41.03
49063;BME280;34876;51.464;-0.150;2024-03-07T02:45:20;102267.45;;;17.11;40.90
49063;BME280;34876;51.464;-0.150;2024-03-07T02:47:50;102265.09;;;17.16;40.78
49063;BME280;34876;51.464;-0.150;2024-03-07T02:50:21;102261.23;;;17.16;40.73
49063;BME280;34876;51.464;-0.150;2024-03-07T02:52:50;102258.72;;;17.18;40.74
49063;BME280;34876;51.464;-0.150;2024-03-07T02:55:26;102258.00;;;17.13;40.87
49063;BME280;34876;51.464;-0.150;2024-03-07T02:57:55;102253.52;;;17.18;40.71
49063;BME280;34876;51.464;-0.150;2024-03-07T03:00:25;102252.83;;;17.17;40.73
49063;BME280;34876;51.464;-0.150;2024-03-07T03:02:58;102247.46;;;17.19;40.69
49063;BME280;34876;51.464;-0.150;2024-03-07T03:05:27;102244.08;;;17.22;40.64
49063;BME280;34876;51.464;-0.150;2024-03-07T03:07:56;102251.60;;;15.96;43.94
49063;BME280;34876;51.464;-0.150;2024-03-07T03:10:26;102237.19;;;16.66;42.02
49063;BME280;34876;51.464;-0.150;2024-03-07T03:12:56;102235.17;;;17.08;41.03
49063;BME280;34876;51.464;-0.150;2024-03-07T03:15:26;102236.85;;;16.93;41.57
49063;BME280;34876;51.464;-0.150;2024-03-07T03:17:56;102231.07;;;17.15;40.85
49063;BME280;34876;51.464;-0.150;2024-03-07T03:20:26;102231.57;;;17.05;41.09
49063;BME280;34876;51.464;-0.150;2024-03-07T03:22:56;102226.47;;;16.86;41.53
49063;BME280;34876;51.464;-0.150;2024-03-07T03:25:25;102221.22;;;17.12;40.96
49063;BME280;34876;51.464;-0.150;2024-03-07T03:27:55;102221.47;;;16.67;42.03
49063;BME280;34876;51.464;-0.150;2024-03-07T03:30:24;102218.80;;;16.85;41.57
49063;BME280;34876;51.464;-0.150;2024-03-07T03:32:54;102219.07;;;15.94;44.23
49063;BME280;34876;51.464;-0.150;2024-03-07T03:35:24;102218.50;;;16.17;43.23
49063;BME280;34876;51.464;-0.150;2024-03-07T03:37:53;102215.11;;;15.57;44.74
49063;BME280;34876;51.464;-0.150;2024-03-07T03:40:22;102224.53;;;13.63;49.80
49063;BME280;34876;51.464;-0.150;2024-03-07T03:42:51;102229.27;;;13.05;51.42
49063;BME280;34876;51.464;-0.150;2024-03-07T03:45:22;102218.73;;;15.65;44.92
49063;BME280;34876;51.464;-0.150;2024-03-07T03:47:51;102220.58;;;14.46;47.60
49063;BME280;34876;51.464;-0.150;2024-03-07T03:50:21;102221.21;;;13.52;50.20
49063;BME280;34876;51.464;-0.150;2024-03-07T03:52:51;102224.57;;;13.85;49.49
49063;BME280;34876;51.464;-0.150;2024-03-07T03:55:21;102213.98;;;16.16;43.55
49063;BME280;34876;51.464;-0.150;2024-03-07T03:57:51;102223.01;;;14.10;48.53
49063;BME280;34876;51.464;-0.150;2024-03-07T04:00:23;102221.98;;;13.71;49.84
49063;BME280;34876;51.464;-0.150;2024-03-07T04:02:51;102224.53;;;14.67;46.94
49063;BME280;34876;51.464;-0.150;2024-03-07T04:05:20;102233.60;;;13.06;51.08
49063;BME280;34876;51.464;-0.150;2024-03-07T04:07:49;102228.55;;;14.92;46.56
49063;BME280;34876;51.464;-0.150;2024-03-07T04:10:19;102223.27;;;15.34;45.36
49063;BME280;34876;51.464;-0.150;2024-03-07T04:12:49;102225.03;;;14.05;48.25
49063;BME280;34876;51.464;-0.150;2024-03-07T04:15:18;102220.86;;;14.20;48.20
49063;BME280;34876;51.464;-0.150;2024-03-07T04:17:47;102220.72;;;13.99;48.89
49063;BME280;34876;51.464;-0.150;2024-03-07T04:20:16;102225.72;;;13.87;48.35
49063;BME280;34876;51.464;-0.150;2024-03-07T04:22:44;102228.88;;;12.48;52.07
49063;BME280;34876;51.464;-0.150;2024-03-07T04:25:19;102219.57;;;13.77;49.40
49063;BME280;34876;51.464;-0.150;2024-03-07T04:27:49;102219.37;;;13.92;49.02
49063;BME280;34876;51.464;-0.150;2024-03-07T04:30:23;102219.28;;;14.57;47.47
49063;BME280;34876;51.464;-0.150;2024-03-07T04:33:10;102216.09;;;15.50;44.56
49063;BME280;34876;51.464;-0.150;2024-03-07T04:35:40;102213.01;;;15.93;43.81
49063;BME280;34876;51.464;-0.150;2024-03-07T04:38:10;102221.08;;;14.83;46.01
49063;BME280;34876;51.464;-0.150;2024-03-07T04:40:39;102222.00;;;15.64;44.24
49063;BME280;34876;51.464;-0.150;2024-03-07T04:43:09;102227.12;;;14.44;47.22
49063;BME280;34876;51.464;-0.150;2024-03-07T04:45:39;102213.83;;;15.46;44.90
49063;BME280;34876;51.464;-0.150;2024-03-07T04:48:09;102219.29;;;15.14;45.60
49063;BME280;34876;51.464;-0.150;2024-03-07T04:50:37;102218.53;;;15.67;44.39
49063;BME280;34876;51.464;-0.150;2024-03-07T04:53:06;102218.36;;;16.30;42.72
49063;BME280;34876;51.464;-0.150;2024-03-07T04:55:35;102215.18;;;16.66;41.88
49063;BME280;34876;51.464;-0.150;2024-03-07T04:58:04;102212.73;;;16.81;41.50
49063;BME280;34876;51.464;-0.150;2024-03-07T05:00:32;102216.16;;;16.68;41.78
49063;BME280;34876;51.464;-0.150;2024-03-07T05:03:02;102215.33;;;16.87;41.31
49063;BME280;34876;51.464;-0.150;2024-03-07T05:05:30;102212.63;;;16.96;41.09
49063;BME280;34876;51.464;-0.150;2024-03-07T05:07:59;102210.94;;;16.94;41.14
49063;BME280;34876;51.464;-0.150;2024-03-07T05:10:29;102214.11;;;16.97;41.07
49063;BME280;34876;51.464;-0.150;2024-03-07T05:12:59;102210.24;;;16.93;41.18
49063;BME280;34876;51.464;-0.150;2024-03-07T05:15:28;102207.52;;;16.54;41.97
49063;BME280;34876;51.464;-0.150;2024-03-07T05:17:57;102206.55;;;16.15;42.95
49063;BME280;34876;51.464;-0.150;2024-03-07T05:20:26;102209.72;;;16.39;42.49
49063;BME280;34876;51.464;-0.150;2024-03-07T05:22:56;102205.77;;;16.74;41.65
49063;BME280;34876;51.464;-0.150;2024-03-07T05:25:25;102206.54;;;16.27;42.70
49063;BME280;34876;51.464;-0.150;2024-03-07T05:27:54;102210.15;;;14.93;46.51
49063;BME280;34876;51.464;-0.150;2024-03-07T05:30:23;102211.50;;;14.92;45.96
49063;BME280;34876;51.464;-0.150;2024-03-07T05:32:53;102196.70;;;16.01;44.08
49063;BME280;34876;51.464;-0.150;2024-03-07T05:35:22;102203.85;;;14.90;46.51
49063;BME280;34876;51.464;-0.150;2024-03-07T05:37:51;102196.95;;;16.07;43.50
49063;BME280;34876;51.464;-0.150;2024-03-07T05:40:21;102199.58;;;15.42;45.27
49063;BME280;34876;51.464;-0.150;2024-03-07T05:42:50;102195.22;;;15.75;44.26
49063;BME280;34876;51.464;-0.150;2024-03-07T05:45:19;102196.72;;;15.12;45.95
49063;BME280;34876;51.464;-0.150;2024-03-07T05:47:48;102203.59;;;14.99;46.63
49063;BME280;34876;51.464;-0.150;2024-03-07T05:50:17;102192.78;;;15.50;45.60
49063;BME280;34876;51.464;-0.150;2024-03-07T05:52:47;102192.37;;;16.24;43.16
49063;BME280;34876;51.464;-0.150;2024-03-07T05:55:16;102191.20;;;16.80;41.75
49063;BME280;34876;51.464;-0.150;2024-03-07T05:57:45;102190.62;;;16.64;42.04
49063;BME280;34876;51.464;-0.150;2024-03-07T06:00:15;102192.16;;;16.53;42.40
49063;BME280;34876;51.464;-0.150;2024-03-07T06:02:45;102193.04;;;15.70;44.44
49063;BME280;34876;51.464;-0.150;2024-03-07T06:05:15;102190.66;;;16.58;42.33
49063;BME280;34876;51.464;-0.150;2024-03-07T06:07:44;102191.80;;;16.72;41.93
49063;BME280;34876;51.464;-0.150;2024-03-07T06:10:13;102193.91;;;15.60;45.04
49063;BME280;34876;51.464;-0.150;2024-03-07T06:12:43;102194.11;;;14.44;47.82
49063;BME280;34876;51.464;-0.150;2024-03-07T06:15:12;102196.99;;;14.55;47.49
49063;BME280;34876;51.464;-0.150;2024-03-07T06:17:41;102195.27;;;15.43;45.68
49063;BME280;34876;51.464;-0.150;2024-03-07T06:20:11;102192.70;;;16.10;43.65
49063;BME280;34876;51.464;-0.150;2024-03-07T06:22:41;102191.72;;;16.14;43.39
49063;BME280;34876;51.464;-0.150;2024-03-07T06:25:10;102194.04;;;16.31;42.99
49063;BME280;34876;51.464;-0.150;2024-03-07T06:27:40;102193.47;;;16.44;42.64
49063;BME280;34876;51.464;-0.150;2024-03-07T06:30:10;102193.92;;;15.46;45.21
49063;BME280;34876;51.464;-0.150;2024-03-07T06:32:40;102197.51;;;15.26;45.57
49063;BME280;34876;51.464;-0.150;2024-03-07T06:35:10;102199.18;;;15.88;44.04
49063;BME280;34876;51.464;-0.150;2024-03-07T06:37:39;102204.00;;;16.23;43.14
49063;BME280;34876;51.464;-0.150;2024-03-07T06:40:10;102207.41;;;16.37;43.11
49063;BME280;34876;51.464;-0.150;2024-03-07T06:42:39;102207.78;;;16.31;43.01
49063;BME280;34876;51.464;-0.150;2024-03-07T06:45:08;102205.35;;;15.78;44.26
49063;BME280;34876;51.464;-0.150;2024-03-07T06:47:38;102207.52;;;15.73;44.43
49063;BME280;34876;51.464;-0.150;2024-03-07T06:50:08;102203.38;;;15.79;44.36
49063;BME280;34876;51.464;-0.150;2024-03-07T06:52:38;102211.64;;;14.81;46.65
49063;BME280;34876;51.464;-0.150;2024-03-07T06:55:06;102198.69;;;16.28;43.14
49063;BME280;34876;51.464;-0.150;2024-03-07T06:57:36;102198.48;;;15.96;43.97
49063;BME280;34876;51.464;-0.150;2024-03-07T07:00:07;102194.24;;;15.42;45.27
49063;BME280;34876;51.464;-0.150;2024-03-07T07:02:38;102194.24;;;16.28;43.18
49063;BME280;34876;51.464;-0.150;2024-03-07T07:05:07;102192.01;;;16.48;42.71
49063;BME280;34876;51.464;-0.150;2024-03-07T07:07:37;102193.83;;;16.07;43.53
49063;BME280;34876;51.464;-0.150;2024-03-07T07:10:08;102208.22;;;13.78;49.26
49063;BME280;34876;51.464;-0.150;2024-03-07T07:12:38;102199.77;;;13.89;49.24
49063;BME280;34876;51.464;-0.150;2024-03-07T07:15:09;102194.51;;;15.84;44.43
49063;BME280;34876;51.464;-0.150;2024-03-07T07:17:38;102199.29;;;14.87;46.71
49063;BME280;34876;51.464;-0.150;2024-03-07T07:20:09;102199.77;;;15.09;46.24
49063;BME280;34876;51.464;-0.150;2024-03-07T07:22:38;102209.31;;;13.13;51.23
49063;BME280;34876;51.464;-0.150;2024-03-07T07:25:08;102201.92;;;14.22;48.69
49063;BME280;34876;51.464;-0.150;2024-03-07T07:27:38;102200.86;;;16.26;43.56
49063;BME280;34876;51.464;-0.150;2024-03-07T07:30:08;102199.30;;;15.25;45.70
49063;BME280;34876;51.464;-0.150;2024-03-07T07:32:38;102203.18;;;15.81;44.46
49063;BME280;34876;51.464;-0.150;2024-03-07T07:35:09;102212.63;;;13.09;51.53
49063;BME280;34876;51.464;-0.150;2024-03-07T07:37:38;102200.24;;;13.88;49.42
49063;BME280;34876;51.464;-0.150;2024-03-07T07:40:11;102189.89;;;15.81;44.62
49063;BME280;34876;51.464;-0.150;2024-03-07T07:42:41;102193.74;;;14.40;47.89
49063;BME280;34876;51.464;-0.150;2024-03-07T07:45:10;102193.47;;;14.94;46.68
49063;BME280;34876;51.464;-0.150;2024-03-07T07:47:41;102187.10;;;15.74;44.68
49063;BME280;34876;51.464;-0.150;2024-03-07T07:50:13;102190.65;;;15.32;45.76
49063;BME280;34876;51.464;-0.150;2024-03-07T07:52:44;102184.80;;;15.37;45.48
49063;BME280;34876;51.464;-0.150;2024-03-07T07:55:14;102182.76;;;16.32;43.22
49063;BME280;34876;51.464;-0.150;2024-03-07T07:57:44;102182.49;;;15.88;44.32
49063;BME280;34876;51.464;-0.150;2024-03-07T08:00:15;102188.30;;;14.88;46.66
49063;BME280;34876;51.464;-0.150;2024-03-07T08:02:45;102180.35;;;15.76;44.65
49063;BME280;34876;51.464;-0.150;2024-03-07T08:05:14;102179.64;;;15.52;45.16
49063;BME280;34876;51.464;-0.150;2024-03-07T08:07:44;102180.05;;;15.12;46.05
49063;BME280;34876;51.464;-0.150;2024-03-07T08:10:13;102171.46;;;15.16;46.13
49063;BME280;34876;51.464;-0.150;2024-03-07T08:12:43;102172.14;;;14.85;47.20
49063;BME280;34876;51.464;-0.150;2024-03-07T08:15:13;102173.09;;;14.73;47.54
49063;BME280;34876;51.464;-0.150;2024-03-07T08:17:43;102173.38;;;14.46;48.34
49063;BME280;34876;51.464;-0.150;2024-03-07T08:20:14;102164.17;;;14.92;47.18
49063;BME280;34876;51.464;-0.150;2024-03-07T08:22:44;102158.85;;;14.84;47.30
49063;BME280;34876;51.464;-0.150;2024-03-07T08:25:15;102155.97;;;16.34;43.47
49063;BME280;34876;51.464;-0.150;2024-03-07T08:27:46;102154.23;;;15.75;44.97
49063;BME280;34876;51.464;-0.150;2024-03-07T08:30:16;102157.93;;;15.21;46.80
49063;BME280;34876;51.464;-0.150;2024-03-07T08:32:48;102154.74;;;15.07;46.57
49063;BME280;34876;51.464;-0.150;2024-03-07T08:35:18;102155.23;;;13.66;50.91
49063;BME280;34876;51.464;-0.150;2024-03-07T08:37:48;102153.22;;;14.16;49.13
49063;BME280;34876;51.464;-0.150;2024-03-07T08:40:19;102154.96;;;13.39;51.48
49063;BME280;34876;51.464;-0.150;2024-03-07T08:42:49;102141.86;;;15.49;45.83
49063;BME280;34876;51.464;-0.150;2024-03-07T08:45:19;102138.30;;;16.16;43.92
49063;BME280;34876;51.464;-0.150;2024-03-07T08:47:49;102137.74;;;15.21;46.97
49063;BME280;34876;51.464;-0.150;2024-03-07T08:50:20;102135.61;;;16.17;43.87
49063;BME280;34876;51.464;-0.150;2024-03-07T08:52:51;102137.96;;;14.72;47.28
49063;BME280;34876;51.464;-0.150;2024-03-07T08:55:22;102130.95;;;16.36;43.39
49063;BME280;34876;51.464;-0.150;2024-03-07T08:57:52;102128.52;;;16.50;43.03
49063;BME280;34876;51.464;-0.150;2024-03-07T09:00:23;102136.43;;;16.11;44.42
49063;BME280;34876;51.464;-0.150;2024-03-07T09:02:53;102146.11;;;13.12;52.06
49063;BME280;34876;51.464;-0.150;2024-03-07T09:05:23;102138.25;;;14.19;49.15
49063;BME280;34876;51.464;-0.150;2024-03-07T09:07:54;102131.77;;;13.85;49.85
49063;BME280;34876;51.464;-0.150;2024-03-07T09:10:25;102128.72;;;13.49;51.67
49063;BME280;34876;51.464;-0.150;2024-03-07T09:12:54;102135.12;;;13.12;52.77
49063;BME280;34876;51.464;-0.150;2024-03-07T09:15:23;102129.22;;;14.34;48.95
49063;BME280;34876;51.464;-0.150;2024-03-07T09:17:53;102120.45;;;16.09;44.34
49063;BME280;34876;51.464;-0.150;2024-03-07T09:20:24;102116.27;;;16.34;44.03
49063;BME280;34876;51.464;-0.150;2024-03-07T09:22:54;102115.69;;;16.98;42.25
49063;BME280;34876;51.464;-0.150;2024-03-07T09:25:24;102125.70;;;14.28;48.37
49063;BME280;34876;51.464;-0.150;2024-03-07T09:27:52;102115.45;;;16.22;43.89
49063;BME280;34876;51.464;-0.150;2024-03-07T09:30:22;102114.39;;;16.48;43.22
49063;BME280;34876;51.464;-0.150;2024-03-07T09:32:52;102111.32;;;15.53;45.54
49063;BME280;34876;51.464;-0.150;2024-03-07T09:35:21;102123.31;;;14.76;48.03
49063;BME280;34876;51.464;-0.150;2024-03-07T09:37:52;102119.63;;;14.76;47.95
49063;BME280;34876;51.464;-0.150;2024-03-07T09:40:21;102109.95;;;16.47;43.36
49063;BME280;34876;51.464;-0.150;2024-03-07T09:42:49;102100.97;;;16.80;42.47
49063;BME280;34876;51.464;-0.150;2024-03-07T09:45:20;102112.13;;;15.84;45.27
49063;BME280;34876;51.464;-0.150;2024-03-07T09:47:51;102109.04;;;15.85;44.79
49063;BME280;34876;51.464;-0.150;2024-03-07T09:50:22;102105.17;;;16.16;44.02
49063;BME280;34876;51.464;-0.150;2024-03-07T09:52:52;102114.62;;;14.60;48.60
49063;BME280;34876;51.464;-0.150;2024-03-07T09:55:26;102106.93;;;15.67;45.38
49063;BME280;34876;51.464;-0.150;2024-03-07T09:57:58;102104.30;;;15.29;46.63
49063;BME280;34876;51.464;-0.150;2024-03-07T10:00:29;102105.04;;;16.30;44.75
49063;BME280;34876;51.464;-0.150;2024-03-07T10:03:02;102101.83;;;15.71;45.72
49063;BME280;34876;51.464;-0.150;2024-03-07T10:05:34;102095.74;;;15.28;46.38
49063;BME280;34876;51.464;-0.150;2024-03-07T10:08:04;102096.06;;;15.81;45.57
49063;BME280;34876;51.464;-0.150;2024-03-07T10:10:34;102091.33;;;16.38;43.65
49063;BME280;34876;51.464;-0.150;2024-03-07T10:13:03;102098.89;;;14.28;49.12
49063;BME280;34876;51.464;-0.150;2024-03-07T10:15:33;102097.27;;;16.01;45.14
49063;BME280;34876;51.464;-0.150;2024-03-07T10:18:06;102086.54;;;16.73;42.81
49063;BME280;34876;51.464;-0.150;2024-03-07T10:20:37;102089.34;;;15.87;45.53
49063;BME280;34876;51.464;-0.150;2024-03-07T10:23:06;102095.87;;;15.75;45.05
49063;BME280;34876;51.464;-0.150;2024-03-07T10:25:36;102084.21;;;16.06;45.24
49063;BME280;34876;51.464;-0.150;2024-03-07T10:28:09;102085.93;;;16.35;43.67
49063;BME280;34876;51.464;-0.150;2024-03-07T10:30:40;102081.12;;;15.91;44.75
49063;BME280;34876;51.464;-0.150;2024-03-07T10:33:11;102089.31;;;14.80;48.39
49063;BME280;34876;51.464;-0.150;2024-03-07T10:35:42;102087.34;;;14.84;48.07
49063;BME280;34876;51.464;-0.150;2024-03-07T10:38:12;102087.83;;;15.64;45.76
49063;BME280;34876;51.464;-0.150;2024-03-07T10:40:42;102074.51;;;15.89;45.84
49063;BME280;34876;51.464;-0.150;2024-03-07T10:43:12;102072.36;;;15.30;46.40
49063;BME280;34876;51.464;-0.150;2024-03-07T10:45:44;102067.49;;;15.04;47.25
49063;BME280;34876;51.464;-0.150;2024-03-07T10:48:17;102072.85;;;13.65;51.15
49063;BME280;34876;51.464;-0.150;2024-03-07T10:50:54;102069.61;;;15.38;46.41
49063;BME280;34876;51.464;-0.150;2024-03-07T10:53:32;102063.98;;;15.48;46.02
49063;BME280;34876;51.464;-0.150;2024-03-07T10:56:17;102068.36;;;15.92;45.05
49063;BME280;34876;51.464;-0.150;2024-03-07T10:58:58;102056.58;;;15.38;46.96
49063;BME280;34876;51.464;-0.150;2024-03-07T11:01:31;102056.53;;;16.24;44.18
49063;BME280;34876;51.464;-0.150;2024-03-07T11:04:01;102055.38;;;16.25;44.05
49063;BME280;34876;51.464;-0.150;2024-03-07T11:06:33;102045.84;;;16.00;44.40
49063;BME280;34876;51.464;-0.150;2024-03-07T11:09:03;102044.87;;;16.44;43.71
49063;BME280;34876;51.464;-0.150;2024-03-07T11:11:33;102040.37;;;16.20;44.26
49063;BME280;34876;51.464;-0.150;2024-03-07T11:14:03;102045.04;;;16.19;44.12
49063;BME280;34876;51.464;-0.150;2024-03-07T11:16:34;102049.33;;;15.76;44.97
49063;BME280;34876;51.464;-0.150;2024-03-07T11:19:24;102043.92;;;14.85;47.20
49063;BME280;34876;51.464;-0.150;2024-03-07T11:21:53;102040.59;;;16.20;44.07
49063;BME280;34876;51.464;-0.150;2024-03-07T11:24:24;102035.27;;;16.29;43.83
49063;BME280;34876;51.464;-0.150;2024-03-07T11:26:55;102025.23;;;16.62;42.96
49063;BME280;34876;51.464;-0.150;2024-03-07T11:29:47;102023.64;;;16.24;43.76
49063;BME280;34876;51.464;-0.150;2024-03-07T11:32:18;102039.21;;;15.91;44.63
49063;BME280;34876;51.464;-0.150;2024-03-07T11:34:48;102018.57;;;16.70;42.68
49063;BME280;34876;51.464;-0.150;2024-03-07T11:37:18;102019.12;;;15.78;44.82
49063;BME280;34876;51.464;-0.150;2024-03-07T11:39:48;102036.37;;;15.84;44.53
49063;BME280;34876;51.464;-0.150;2024-03-07T11:42:23;102015.01;;;15.45;44.98
49063;BME280;34876;51.464;-0.150;2024-03-07T11:44:52;102014.01;;;15.42;45.67
49063;BME280;34876;51.464;-0.150;2024-03-07T11:47:23;102009.11;;;15.68;45.05
49063;BME280;34876;51.464;-0.150;2024-03-07T11:49:54;102005.48;;;15.56;45.33
49063;BME280;34876;51.464;-0.150;2024-03-07T11:52:23;102005.81;;;14.81;47.10
49063;BME280;34876;51.464;-0.150;2024-03-07T11:54:53;102002.73;;;13.30;51.22
49063;BME280;34876;51.464;-0.150;2024-03-07T11:57:24;101996.06;;;13.97;49.70
49063;BME280;34876;51.464;-0.150;2024-03-07T11:59:54;101992.30;;;14.38;48.22
49063;BME280;34876;51.464;-0.150;2024-03-07T12:02:25;101984.86;;;15.30;45.71
49063;BME280;34876;51.464;-0.150;2024-03-07T12:04:54;101978.46;;;15.69;44.34
49063;BME280;34876;51.464;-0.150;2024-03-07T12:07:24;101970.68;;;16.30;43.43
49063;BME280;34876;51.464;-0.150;2024-03-07T12:09:53;101967.49;;;16.03;43.86
49063;BME280;34876;51.464;-0.150;2024-03-07T12:12:23;101958.18;;;16.42;42.79
49063;BME280;34876;51.464;-0.150;2024-03-07T12:14:54;101948.21;;;16.08;42.92
49063;BME280;34876;51.464;-0.150;2024-03-07T12:17:25;101968.45;;;15.86;43.25
49063;BME280;34876;51.464;-0.150;2024-03-07T12:19:55;101946.01;;;16.42;42.85
49063;BME280;34876;51.464;-0.150;2024-03-07T12:22:25;101948.26;;;16.08;43.31
49063;BME280;34876;51.464;-0.150;2024-03-07T12:25:04;101941.62;;;16.43;42.67
49063;BME280;34876;51.464;-0.150;2024-03-07T12:27:37;101940.67;;;15.57;44.48
49063;BME280;34876;51.464;-0.150;2024-03-07T12:30:15;101931.71;;;15.99;43.22
49063;BME280;34876;51.464;-0.150;2024-03-07T12:32:48;101926.10;;;15.77;42.87
49063;BME280;34876;51.464;-0.150;2024-03-07T12:35:18;101940.86;;;14.36;45.46
49063;BME280;34876;51.464;-0.150;2024-03-07T12:37:47;101933.62;;;15.25;43.39
49063;BME280;34876;51.464;-0.150;2024-03-07T12:40:16;101921.52;;;15.49;43.61
49063;BME280;34876;51.464;-0.150;2024-03-07T12:42:46;101939.07;;;14.34;44.35
49063;BME280;34876;51.464;-0.150;2024-03-07T12:45:16;101925.39;;;14.36;44.98
49063;BME280;34876;51.464;-0.150;2024-03-07T12:47:46;101911.79;;;15.91;43.45
49063;BME280;34876;51.464;-0.150;2024-03-07T12:50:17;101904.63;;;16.10;42.77
49063;BME280;34876;51.464;-0.150;2024-03-07T12:52:47;101898.60;;;16.65;41.64
49063;BME280;34876;51.464;-0.150;2024-03-07T12:55:18;101896.04;;;15.88;43.14
49063;BME280;34876;51.464;-0.150;2024-03-07T12:57:47;101904.17;;;14.69;45.48
49063;BME280;34876;51.464;-0.150;2024-03-07T13:00:18;101909.67;;;14.40;45.88
49063;BME280;34876;51.464;-0.150;2024-03-07T13:02:48;101898.30;;;14.28;46.67
49063;BME280;34876;51.464;-0.150;2024-03-07T13:05:17;101900.09;;;13.58;47.85